Roswell, New Mexico
Current Conditions -  °F | °C
As of 9:51 AM on Saturday 22 Nov 2014 (Local Time) from KROW Reporting Station
Clear Clear  
Wind Chill: 58°   Ceiling: Unl
Heat Index: 58°   Visibility: 10mi
Dew Point: 26°   Wind: 10mph
Humidity: 30%   Direction: 10°N
Pressure: 30"   Gusts: NA
Location:  33.39°N, 104.52°W
Report Text: KROW 221651Z 01009KT 10SM CLR 14/M03 A3000 RMK AO2 SLP127 T01441033
Loading
Personal Weather Stations






























Interactive Weather Map New forecast layout! Learn more

10-Day Weather Forecast

Advertisements
Track Severe Weather on mobile